Time;durP1;ratioP1;P1;durP2;ratioP2;P2;SDS_P1;SDS_P2;PMS_P1;PMS_P2;Temp;Humidity;BMP_temperature;BMP_pressure;BME280_temperature;BME280_humidity;BME280_pressure;Samples;Min_cycle;Max_cycle;Signal;HPM_P1;HPM_P2
2023/01/25 00:01:43;;;;;;;9.87;7.30;;;6.70;99.90;;;;;;4992040;28;20188;-53
2023/01/25 00:04:09;;;;;;;8.60;6.83;;;6.80;99.90;;;;;;4991687;28;20268;-54
2023/01/25 00:06:35;;;;;;;9.03;7.30;;;6.80;99.90;;;;;;4991697;28;20256;-53
2023/01/25 00:09:00;;;;;;;8.53;7.13;;;6.80;99.90;;;;;;4991847;28;20205;-50
2023/01/25 00:11:26;;;;;;;8.57;7.03;;;6.80;99.90;;;;;;4991820;28;20208;-51
2023/01/25 00:13:55;;;;;;;9.23;7.37;;;6.70;99.90;;;;;;4991621;28;20177;-52
2023/01/25 00:16:21;;;;;;;8.87;6.97;;;6.70;99.90;;;;;;5006642;28;20184;-50
2023/01/25 00:18:47;;;;;;;8.83;7.37;;;6.70;99.90;;;;;;4991830;28;20284;-52
2023/01/25 00:21:21;;;;;;;8.27;6.80;;;6.70;99.90;;;;;;4991663;28;20181;-51
2023/01/25 00:23:47;;;;;;;9.17;7.37;;;6.70;99.90;;;;;;4991566;28;20426;-52
2023/01/25 00:26:13;;;;;;;8.77;7.07;;;6.70;99.90;;;;;;4991618;28;20620;-51
2023/01/25 00:28:38;;;;;;;10.27;7.80;;;6.70;99.90;;;;;;4991923;28;20209;-54
2023/01/25 00:31:06;;;;;;;9.30;7.87;;;6.70;99.90;;;;;;4995660;28;20179;-49
2023/01/25 00:33:34;;;;;;;8.47;6.97;;;6.70;99.90;;;;;;4995534;28;20177;-51
2023/01/25 00:36:00;;;;;;;8.47;7.43;;;6.70;99.90;;;;;;4995738;28;20174;-50
2023/01/25 00:38:32;;;;;;;9.87;8.20;;;6.60;99.90;;;;;;5097241;22;20282;-52
2023/01/25 00:40:58;;;;;;;9.23;7.53;;;6.60;99.90;;;;;;4994854;28;20772;-49
2023/01/25 00:43:24;;;;;;;9.83;7.63;;;6.60;99.90;;;;;;4995126;28;20255;-49
2023/01/25 00:45:49;;;;;;;9.67;7.70;;;6.70;99.90;;;;;;4995403;28;20177;-50
2023/01/25 00:48:15;;;;;;;9.07;7.10;;;6.60;99.90;;;;;;4994766;28;20806;-49
2023/01/25 00:50:40;;;;;;;10.63;7.73;;;6.60;99.90;;;;;;4995438;28;20615;-49
2023/01/25 00:53:06;;;;;;;8.73;7.83;;;6.70;99.90;;;;;;4995299;28;20705;-52
2023/01/25 00:55:31;;;;;;;10.00;7.67;;;6.70;99.90;;;;;;4995049;28;20185;-52
2023/01/25 00:57:57;;;;;;;9.17;7.27;;;6.70;99.90;;;;;;4994836;28;20189;-50
2023/01/25 01:00:22;;;;;;;9.27;7.50;;;6.60;99.90;;;;;;4995199;28;20189;-49
2023/01/25 01:02:48;;;;;;;9.20;7.60;;;6.60;99.90;;;;;;4995189;28;20188;-50
2023/01/25 01:05:14;;;;;;;9.03;7.50;;;6.60;99.90;;;;;;4994921;28;20169;-49
2023/01/25 01:07:39;;;;;;;9.77;8.07;;;6.50;99.90;;;;;;4995006;28;20224;-49
2023/01/25 01:10:06;;;;;;;9.10;7.23;;;6.30;99.90;;;;;;4993559;28;20208;-49
2023/01/25 01:12:31;;;;;;;9.37;7.40;;;6.20;99.90;;;;;;4995068;28;20272;-49
2023/01/25 01:14:57;;;;;;;8.43;6.80;;;6.20;99.90;;;;;;4994410;28;20185;-49
2023/01/25 01:17:22;;;;;;;8.20;6.77;;;6.20;99.90;;;;;;4994829;28;20561;-49
2023/01/25 01:19:48;;;;;;;9.30;7.20;;;6.20;99.90;;;;;;4994918;28;20169;-49
2023/01/25 01:22:13;;;;;;;9.77;7.87;;;6.30;99.90;;;;;;4994951;28;20197;-48
2023/01/25 01:24:39;;;;;;;10.20;8.37;;;6.30;99.90;;;;;;4994331;28;20248;-49
2023/01/25 01:27:05;;;;;;;9.70;8.17;;;6.30;99.90;;;;;;4994685;28;20575;-49
2023/01/25 01:29:30;;;;;;;10.50;7.70;;;6.30;99.90;;;;;;4994476;28;20208;-49
2023/01/25 01:31:56;;;;;;;9.77;7.77;;;6.40;99.90;;;;;;4994741;28;20169;-49
2023/01/25 01:34:21;;;;;;;9.83;8.13;;;6.40;99.90;;;;;;4994356;28;20173;-49
2023/01/25 01:36:47;;;;;;;9.70;7.77;;;6.40;99.90;;;;;;4994358;28;20534;-49
2023/01/25 01:39:13;;;;;;;9.37;8.00;;;6.40;99.90;;;;;;4994403;28;20295;-50
2023/01/25 01:41:38;;;;;;;9.10;7.30;;;6.40;99.90;;;;;;4993198;28;20178;-49
2023/01/25 01:44:04;;;;;;;10.13;7.93;;;6.40;99.90;;;;;;4994316;28;20646;-49
2023/01/25 01:46:36;;;;;;;9.00;7.70;;;6.40;99.90;;;;;;4994239;28;20189;-50
2023/01/25 01:49:17;;;;;;;9.10;7.57;;;6.40;99.90;;;;;;4994174;28;20197;-49
2023/01/25 01:51:43;;;;;;;9.87;7.90;;;6.40;99.90;;;;;;4994157;28;20170;-49
2023/01/25 01:54:12;;;;;;;9.93;8.13;;;6.40;99.90;;;;;;4994004;28;20542;-49
2023/01/25 01:56:58;;;;;;;10.33;8.20;;;6.40;99.90;;;;;;4994013;28;20220;-50
2023/01/25 01:59:29;;;;;;;9.13;7.63;;;6.30;99.90;;;;;;4953057;29;20236;-48
2023/01/25 02:01:55;;;;;;;9.53;7.43;;;6.30;99.90;;;;;;4952950;29;20277;-49
2023/01/25 02:04:23;;;;;;;9.43;7.63;;;6.30;99.90;;;;;;4952836;29;20291;-50
2023/01/25 02:06:57;;;;;;;11.00;8.73;;;6.30;99.90;;;;;;4952761;29;20258;-48
2023/01/25 02:09:24;;;;;;;9.80;8.07;;;6.30;99.90;;;;;;4952852;29;20222;-48
2023/01/25 02:11:51;;;;;;;10.53;8.50;;;6.20;99.90;;;;;;4952812;29;20197;-49
2023/01/25 02:14:18;;;;;;;11.00;9.07;;;6.10;99.90;;;;;;4952652;29;20177;-49
2023/01/25 02:16:44;;;;;;;10.87;8.30;;;6.10;99.90;;;;;;4952854;29;20250;-49
2023/01/25 02:19:18;;;;;;;9.87;8.00;;;6.10;99.90;;;;;;4952663;29;20222;-48
2023/01/25 02:21:46;;;;;;;10.37;8.10;;;6.10;99.90;;;;;;4952837;29;20217;-49
2023/01/25 02:24:22;;;;;;;12.07;9.07;;;6.20;99.90;;;;;;4952227;29;20193;-49
2023/01/25 02:26:48;;;;;;;10.43;8.27;;;6.20;99.90;;;;;;4952816;29;20186;-49
2023/01/25 02:29:14;;;;;;;11.30;8.90;;;6.20;99.90;;;;;;4952260;29;20214;-49
2023/01/25 02:31:43;;;;;;;10.50;8.50;;;6.20;99.90;;;;;;4952722;29;20291;-49
2023/01/25 02:34:09;;;;;;;10.33;8.37;;;6.20;99.90;;;;;;4952219;29;20181;-49
2023/01/25 02:36:35;;;;;;;9.83;8.23;;;6.20;99.90;;;;;;4974587;28;20581;-48
2023/01/25 02:39:11;;;;;;;9.57;7.83;;;6.20;99.90;;;;;;4993271;28;20586;-51
2023/01/25 02:41:39;;;;;;;10.27;8.07;;;6.20;99.90;;;;;;4993519;28;20169;-49
2023/01/25 02:44:12;;;;;;;9.23;7.63;;;6.20;99.90;;;;;;4992968;28;20248;-49
2023/01/25 02:46:39;;;;;;;10.07;8.00;;;6.20;99.90;;;;;;4993318;28;20170;-49
2023/01/25 02:49:06;;;;;;;10.67;7.97;;;6.20;99.90;;;;;;4993179;28;20594;-49
2023/01/25 02:51:34;;;;;;;9.23;7.60;;;6.20;99.90;;;;;;4991787;28;20602;-49
2023/01/25 02:54:02;;;;;;;9.37;8.10;;;6.20;99.90;;;;;;4993097;28;20248;-48
2023/01/25 02:56:28;;;;;;;9.90;7.50;;;6.10;99.90;;;;;;4992736;28;20181;-48
2023/01/25 02:58:54;;;;;;;10.27;7.53;;;6.10;99.90;;;;;;4993071;28;20259;-49
2023/01/25 03:01:20;;;;;;;8.73;6.70;;;6.10;99.90;;;;;;4993036;28;20174;-51
2023/01/25 03:03:45;;;;;;;9.30;7.53;;;6.10;99.90;;;;;;4992693;28;20196;-49
2023/01/25 03:06:11;;;;;;;9.07;7.47;;;6.10;99.90;;;;;;4992871;28;20268;-49
2023/01/25 03:08:37;;;;;;;8.50;7.17;;;6.10;99.90;;;;;;4992827;28;20201;-49
2023/01/25 03:11:04;;;;;;;12.17;8.30;;;6.20;99.90;;;;;;4992702;28;20702;-50
2023/01/25 03:13:30;;;;;;;8.73;6.80;;;6.20;99.90;;;;;;4992664;28;20177;-49
2023/01/25 03:16:06;;;;;;;9.57;7.53;;;6.20;99.90;;;;;;4992605;28;20224;-50
2023/01/25 03:18:32;;;;;;;9.90;7.67;;;6.20;99.90;;;;;;4992686;28;20188;-48
2023/01/25 03:21:13;;;;;;;8.30;7.00;;;6.10;99.90;;;;;;4992695;28;20177;-50
2023/01/25 03:23:39;;;;;;;10.00;8.10;;;6.10;99.90;;;;;;4992375;28;20204;-49
2023/01/25 03:26:10;;;;;;;10.37;7.73;;;6.10;99.90;;;;;;4992609;28;20180;-49
2023/01/25 03:28:37;;;;;;;9.23;7.23;;;6.00;99.90;;;;;;4992307;28;20216;-50
2023/01/25 03:31:03;;;;;;;9.47;7.50;;;6.00;99.90;;;;;;4992527;28;20657;-49
2023/01/25 03:33:28;;;;;;;10.10;7.40;;;6.00;99.90;;;;;;4992328;28;20171;-49
2023/01/25 03:35:55;;;;;;;9.00;7.10;;;6.10;99.90;;;;;;4992311;28;20216;-49
2023/01/25 03:38:21;;;;;;;7.93;6.40;;;6.00;99.90;;;;;;4992038;28;20589;-50
2023/01/25 03:40:47;;;;;;;8.57;6.90;;;5.80;99.90;;;;;;4992468;28;20174;-50
2023/01/25 03:43:13;;;;;;;8.33;6.83;;;5.80;99.90;;;;;;4992080;28;20174;-50
2023/01/25 03:45:38;;;;;;;8.93;7.30;;;5.80;99.90;;;;;;4992094;28;20219;-49
2023/01/25 03:48:04;;;;;;;8.43;6.60;;;5.80;99.90;;;;;;4991979;28;20193;-51
2023/01/25 03:50:30;;;;;;;7.47;6.50;;;5.90;99.90;;;;;;4992129;28;20213;-49
2023/01/25 03:53:01;;;;;;;8.90;6.57;;;5.90;99.90;;;;;;4992164;28;20177;-50
2023/01/25 03:55:27;;;;;;;9.60;7.27;;;5.90;99.90;;;;;;4992156;28;20177;-48
2023/01/25 03:57:52;;;;;;;8.50;6.83;;;5.90;99.90;;;;;;4992130;28;20566;-49
2023/01/25 04:00:21;;;;;;;9.10;7.20;;;5.90;99.90;;;;;;4992026;28;20177;-49
2023/01/25 04:02:47;;;;;;;8.40;6.60;;;5.90;99.90;;;;;;4992110;28;20225;-49
2023/01/25 04:05:12;;;;;;;8.90;7.40;;;5.90;99.90;;;;;;4991117;28;20174;-49
2023/01/25 04:07:38;;;;;;;8.03;6.57;;;5.90;99.90;;;;;;4991849;28;20203;-49
2023/01/25 04:10:05;;;;;;;9.53;7.17;;;5.90;99.90;;;;;;4991840;28;20255;-49
2023/01/25 04:12:30;;;;;;;9.30;7.40;;;5.90;99.90;;;;;;4991907;28;20180;-49
2023/01/25 04:14:56;;;;;;;8.93;7.47;;;5.90;99.90;;;;;;4991569;28;20173;-50
2023/01/25 04:17:22;;;;;;;8.77;7.00;;;5.90;99.90;;;;;;4991825;28;20674;-49
2023/01/25 04:19:48;;;;;;;8.67;6.97;;;5.90;99.90;;;;;;4991665;28;20180;-49
2023/01/25 04:22:15;;;;;;;8.87;7.30;;;5.80;99.90;;;;;;4991850;28;20279;-48
2023/01/25 04:24:41;;;;;;;9.53;7.23;;;5.80;99.90;;;;;;4991584;28;20191;-51
2023/01/25 04:27:07;;;;;;;8.77;6.77;;;5.90;99.90;;;;;;4991698;28;20173;-49
2023/01/25 04:29:33;;;;;;;8.10;6.87;;;5.80;99.90;;;;;;4991685;28;20196;-49
2023/01/25 04:32:00;;;;;;;8.90;6.60;;;5.90;99.90;;;;;;4991669;28;20173;-49
2023/01/25 04:34:25;;;;;;;8.23;6.40;;;5.90;99.90;;;;;;4990232;28;20686;-48
2023/01/25 04:36:51;;;;;;;8.40;7.03;;;5.90;99.90;;;;;;4991613;28;20176;-49
2023/01/25 04:39:16;;;;;;;8.03;6.40;;;5.90;99.90;;;;;;4991514;28;20213;-49
2023/01/25 04:41:42;;;;;;;8.23;6.90;;;5.90;99.90;;;;;;4991584;28;20185;-48
2023/01/25 04:44:07;;;;;;;9.73;7.13;;;5.70;99.90;;;;;;4991708;28;20173;-49
2023/01/25 04:46:33;;;;;;;9.17;6.37;;;5.60;99.90;;;;;;4991417;28;20181;-49
2023/01/25 04:48:58;;;;;;;9.30;7.30;;;5.50;99.90;;;;;;4990184;28;20217;-49
2023/01/25 04:51:24;;;;;;;9.10;7.20;;;5.50;99.90;;;;;;4991385;28;20184;-49
2023/01/25 04:53:49;;;;;;;8.33;6.80;;;5.40;99.90;;;;;;4990029;28;20177;-49
2023/01/25 04:56:15;;;;;;;9.13;7.07;;;5.50;99.90;;;;;;4991484;28;20169;-50
2023/01/25 04:58:41;;;;;;;10.27;7.50;;;5.50;99.90;;;;;;4991333;28;20235;-49
2023/01/25 05:01:06;;;;;;;9.13;7.33;;;5.60;99.90;;;;;;4990321;28;20188;-49
2023/01/25 05:03:32;;;;;;;9.60;7.60;;;5.60;99.90;;;;;;4991220;28;20245;-49
2023/01/25 05:05:57;;;;;;;12.97;10.17;;;5.70;99.90;;;;;;4989964;28;20623;-49
2023/01/25 05:08:24;;;;;;;10.40;9.03;;;5.70;99.90;;;;;;4991168;28;20884;-50
2023/01/25 05:10:50;;;;;;;17.37;14.73;;;5.80;99.90;;;;;;4991536;28;20180;-50
2023/01/25 05:13:16;;;;;;;18.90;16.90;;;5.70;99.90;;;;;;4991244;28;20181;-49
2023/01/25 05:15:41;;;;;;;17.77;15.93;;;5.70;99.90;;;;;;4992925;28;20273;-49
2023/01/25 05:18:07;;;;;;;12.07;8.73;;;5.60;99.90;;;;;;4993412;28;20197;-49
2023/01/25 05:20:32;;;;;;;9.70;7.70;;;5.60;99.90;;;;;;4994921;28;20169;-50
2023/01/25 05:22:58;;;;;;;9.27;7.77;;;5.50;99.90;;;;;;4994995;28;20260;-48
2023/01/25 05:28:07;;;;;;;10.27;8.33;;;5.30;99.90;;;;;;4994821;28;20728;-49
2023/01/25 05:30:33;;;;;;;9.03;7.87;;;5.30;99.90;;;;;;4994293;28;20217;-49
2023/01/25 05:32:58;;;;;;;11.27;7.90;;;5.30;99.90;;;;;;4994636;28;20173;-48
2023/01/25 05:35:24;;;;;;;10.50;8.00;;;5.30;99.90;;;;;;4994221;28;20193;-47
2023/01/25 05:37:50;;;;;;;10.57;8.07;;;5.40;99.90;;;;;;4994476;28;20213;-51
2023/01/25 05:40:15;;;;;;;10.83;8.27;;;5.30;99.90;;;;;;4994735;28;20260;-49
2023/01/25 05:42:41;;;;;;;10.20;7.67;;;5.20;99.90;;;;;;4994705;28;20220;-49
2023/01/25 05:45:08;;;;;;;10.03;7.63;;;5.20;99.90;;;;;;4994093;28;20658;-50
2023/01/25 05:47:33;;;;;;;11.97;8.20;;;5.20;99.90;;;;;;4994344;28;20620;-49
2023/01/25 05:49:59;;;;;;;10.07;7.57;;;5.10;99.90;;;;;;4994263;28;20291;-49
2023/01/25 05:52:24;;;;;;;9.83;8.00;;;5.00;99.90;;;;;;4994446;28;20177;-48
2023/01/25 05:54:50;;;;;;;10.57;8.20;;;5.00;99.90;;;;;;4992734;28;20169;-48
2023/01/25 05:57:15;;;;;;;12.60;8.87;;;4.90;99.90;;;;;;4994121;28;20209;-48
2023/01/25 05:59:41;;;;;;;11.07;8.23;;;4.90;99.90;;;;;;4994279;28;20318;-52
2023/01/25 06:02:07;;;;;;;11.57;8.47;;;4.80;99.90;;;;;;4993982;28;20173;-50
2023/01/25 06:04:32;;;;;;;12.20;8.67;;;4.80;99.90;;;;;;4993721;28;20201;-48
2023/01/25 06:06:58;;;;;;;10.50;7.23;;;4.60;99.90;;;;;;4992790;28;20173;-48
2023/01/25 06:09:23;;;;;;;12.53;8.63;;;4.50;99.90;;;;;;4994007;28;20217;-49
2023/01/25 06:11:49;;;;;;;13.90;8.67;;;4.60;99.90;;;;;;4993948;28;20179;-51
2023/01/25 06:14:15;;;;;;;12.47;9.50;;;4.60;99.90;;;;;;4993858;28;20257;-54
2023/01/25 06:16:41;;;;;;;10.97;8.90;;;4.70;99.90;;;;;;4993661;28;20850;-48
2023/01/25 06:19:07;;;;;;;10.30;7.80;;;4.60;99.90;;;;;;4993895;28;20193;-49
2023/01/25 06:21:35;;;;;;;12.23;9.20;;;4.40;99.90;;;;;;4993988;28;20209;-48
2023/01/25 06:24:01;;;;;;;12.10;9.70;;;4.40;99.90;;;;;;4993491;28;20177;-48
2023/01/25 06:26:27;;;;;;;10.47;7.63;;;4.40;99.90;;;;;;4993087;28;20192;-49
2023/01/25 06:28:53;;;;;;;11.27;8.60;;;4.50;99.90;;;;;;4993410;28;20205;-49
2023/01/25 06:31:18;;;;;;;12.47;8.93;;;4.50;99.90;;;;;;4993537;28;20192;-48
2023/01/25 06:33:51;;;;;;;11.57;8.67;;;4.60;99.90;;;;;;4993322;28;20173;-49
2023/01/25 06:36:18;;;;;;;10.20;8.30;;;4.70;99.90;;;;;;4993810;28;20550;-49
2023/01/25 06:38:48;;;;;;;10.83;8.23;;;4.80;99.90;;;;;;5073059;23;20219;-50
2023/01/25 06:41:14;;;;;;;13.10;9.60;;;4.90;99.90;;;;;;5029302;28;20255;-55
2023/01/25 06:43:39;;;;;;;11.13;8.40;;;5.00;99.90;;;;;;5033341;28;20195;-50
2023/01/25 06:46:08;;;;;;;12.20;8.87;;;4.90;99.90;;;;;;5052212;28;20175;-49
2023/01/25 06:48:33;;;;;;;11.33;9.10;;;4.80;99.90;;;;;;5040767;28;20262;-50
2023/01/25 06:51:03;;;;;;;13.33;9.67;;;4.80;99.90;;;;;;5011141;28;20160;-50
2023/01/25 06:53:30;;;;;;;12.23;9.17;;;4.80;99.90;;;;;;5011305;28;20169;-51
2023/01/25 06:56:00;;;;;;;12.00;8.90;;;4.70;99.90;;;;;;5012370;28;20602;-53
2023/01/25 06:58:28;;;;;;;11.67;8.77;;;4.70;99.90;;;;;;5012166;28;20219;-50
2023/01/25 07:00:58;;;;;;;10.07;7.70;;;4.80;99.90;;;;;;5012484;28;20650;-51
2023/01/25 07:03:23;;;;;;;12.07;8.70;;;4.80;99.90;;;;;;5011527;28;20223;-49
2023/01/25 07:05:49;;;;;;;11.47;8.47;;;4.90;99.90;;;;;;5012099;28;20180;-52
2023/01/25 07:08:16;;;;;;;11.17;8.53;;;4.80;99.90;;;;;;5012300;28;20165;-53
2023/01/25 07:10:41;;;;;;;10.00;7.90;;;4.60;99.90;;;;;;5012436;28;20246;-52
2023/01/25 07:13:07;;;;;;;10.50;8.30;;;4.60;99.90;;;;;;5010959;28;20165;-49
2023/01/25 07:15:32;;;;;;;10.57;8.27;;;4.60;99.90;;;;;;5011647;28;20248;-48
2023/01/25 07:17:58;;;;;;;12.67;9.30;;;4.60;99.90;;;;;;5012246;28;20258;-51
2023/01/25 07:20:23;;;;;;;11.17;8.53;;;4.60;99.90;;;;;;5012321;28;20701;-48
2023/01/25 07:22:49;;;;;;;15.33;11.33;;;4.70;99.90;;;;;;5012167;28;20204;-49
2023/01/25 07:25:15;;;;;;;17.83;14.20;;;4.70;99.90;;;;;;5012047;28;20538;-49
2023/01/25 07:27:40;;;;;;;12.43;9.80;;;4.80;99.90;;;;;;5010764;28;20257;-51
2023/01/25 07:30:06;;;;;;;13.37;10.27;;;4.90;99.90;;;;;;5011810;28;20215;-48
2023/01/25 07:32:33;;;;;;;16.67;12.53;;;4.90;99.90;;;;;;5012094;28;20302;-52
2023/01/25 07:34:58;;;;;;;11.93;9.00;;;4.90;99.90;;;;;;5011833;28;20187;-49
2023/01/25 07:37:26;;;;;;;12.43;9.90;;;4.90;99.90;;;;;;5010677;28;20169;-49
2023/01/25 07:39:52;;;;;;;14.43;9.30;;;4.90;99.90;;;;;;5010860;28;20534;-49
2023/01/25 07:42:17;;;;;;;11.20;8.73;;;4.90;99.90;;;;;;5011990;28;20282;-51
2023/01/25 07:44:43;;;;;;;11.83;8.67;;;5.00;99.90;;;;;;5011539;28;20196;-48
2023/01/25 07:47:08;;;;;;;11.30;8.70;;;4.90;99.90;;;;;;5011915;28;20183;-50
2023/01/25 07:49:34;;;;;;;11.47;8.20;;;4.90;99.90;;;;;;5028678;28;20204;-49
2023/01/25 07:51:59;;;;;;;11.50;9.40;;;5.00;99.90;;;;;;5031541;28;20663;-51
2023/01/25 07:54:25;;;;;;;11.60;9.43;;;5.00;99.90;;;;;;5031184;28;20168;-48
2023/01/25 07:56:50;;;;;;;12.17;9.57;;;5.10;99.90;;;;;;5031380;28;20249;-48
2023/01/25 07:59:16;;;;;;;14.33;9.80;;;5.10;99.90;;;;;;5031332;28;20668;-52
2023/01/25 08:01:41;;;;;;;12.07;9.47;;;5.20;99.90;;;;;;5031337;28;20495;-50
2023/01/25 08:04:08;;;;;;;12.23;9.53;;;5.30;99.90;;;;;;5030993;28;20171;-49
2023/01/25 08:06:37;;;;;;;11.57;8.53;;;5.30;99.90;;;;;;5031302;28;20249;-49
2023/01/25 08:09:13;;;;;;;10.33;8.13;;;6.80;99.90;;;;;;5031133;28;20250;-51
2023/01/25 08:11:40;;;;;;;10.77;8.57;;;5.30;99.90;;;;;;5031351;28;20175;-52
2023/01/25 08:14:07;;;;;;;10.63;8.50;;;5.20;99.90;;;;;;5030710;28;20197;-49
2023/01/25 08:16:32;;;;;;;10.57;8.53;;;5.10;99.90;;;;;;5031156;28;20178;-51
2023/01/25 08:19:00;;;;;;;13.10;10.00;;;5.10;99.90;;;;;;5031005;28;20183;-49
2023/01/25 08:21:30;;;;;;;10.33;8.43;;;5.20;99.90;;;;;;5031333;28;20174;-50
2023/01/25 08:24:00;;;;;;;12.27;9.20;;;5.20;99.90;;;;;;5030815;28;20224;-49
2023/01/25 08:26:26;;;;;;;13.47;9.40;;;5.30;99.90;;;;;;5031082;28;20160;-49
2023/01/25 08:28:52;;;;;;;11.67;9.00;;;5.30;99.90;;;;;;5030845;28;20271;-49
2023/01/25 08:31:21;;;;;;;12.30;8.97;;;5.10;99.90;;;;;;5031171;28;20560;-51
2023/01/25 08:33:47;;;;;;;13.13;9.37;;;5.00;99.90;;;;;;5030918;28;20167;-49
2023/01/25 08:36:14;;;;;;;13.07;9.50;;;4.90;99.90;;;;;;5031075;28;20172;-49
2023/01/25 08:38:40;;;;;;;12.63;9.80;;;4.80;99.90;;;;;;5030786;28;20187;-49
2023/01/25 08:41:17;;;;;;;11.67;8.47;;;4.80;99.90;;;;;;5031002;28;20186;-50
2023/01/25 08:43:43;;;;;;;12.23;9.17;;;4.90;99.90;;;;;;5030728;28;20172;-50
2023/01/25 08:46:10;;;;;;;13.60;10.47;;;5.00;99.90;;;;;;5030863;28;20171;-53
2023/01/25 08:48:35;;;;;;;12.50;9.90;;;5.10;99.90;;;;;;5030900;28;20241;-49
2023/01/25 08:51:02;;;;;;;12.83;8.97;;;5.10;99.90;;;;;;5033479;28;20167;-49
2023/01/25 08:53:29;;;;;;;12.60;9.30;;;4.60;99.90;;;;;;5034783;28;20217;-51
2023/01/25 08:55:54;;;;;;;12.13;9.17;;;5.10;99.90;;;;;;5032111;28;20184;-49
2023/01/25 08:58:21;;;;;;;12.87;9.67;;;5.10;99.90;;;;;;5014513;28;20219;-49
2023/01/25 09:00:48;;;;;;;13.07;10.07;;;5.10;99.90;;;;;;5014987;28;20169;-50
2023/01/25 09:03:14;;;;;;;13.70;10.30;;;5.20;99.90;;;;;;5014850;28;20526;-49
2023/01/25 09:05:40;;;;;;;13.30;10.17;;;5.20;99.90;;;;;;5014633;28;20172;-51
2023/01/25 09:08:08;;;;;;;12.80;9.77;;;5.20;99.90;;;;;;5014789;28;20553;-52
2023/01/25 09:10:34;;;;;;;12.80;9.87;;;5.20;99.90;;;;;;5014570;28;20197;-48
2023/01/25 09:12:59;;;;;;;25.77;18.07;;;5.20;99.90;;;;;;5014520;28;20199;-49
2023/01/25 09:15:25;;;;;;;14.30;10.23;;;5.20;99.90;;;;;;5014018;28;20216;-51
2023/01/25 09:17:55;;;;;;;18.47;15.40;;;5.20;99.90;;;;;;5014459;28;20176;-51
2023/01/25 09:20:21;;;;;;;14.60;11.10;;;5.30;99.90;;;;;;5014220;28;20220;-50
2023/01/25 09:22:47;;;;;;;13.43;10.17;;;5.30;99.90;;;;;;5013867;28;20296;-49
2023/01/25 09:25:13;;;;;;;13.07;11.17;;;5.30;99.90;;;;;;5013591;28;20603;-52
2023/01/25 09:27:39;;;;;;;11.90;9.33;;;5.40;99.90;;;;;;5014346;28;20628;-48
2023/01/25 09:30:06;;;;;;;13.23;9.60;;;5.40;99.90;;;;;;5013933;28;20263;-50
2023/01/25 09:32:31;;;;;;;11.70;8.80;;;5.40;99.90;;;;;;5014464;28;20636;-52
2023/01/25 09:34:57;;;;;;;11.57;9.40;;;5.40;99.90;;;;;;5013619;28;20165;-49
2023/01/25 09:37:22;;;;;;;12.43;9.73;;;5.30;99.90;;;;;;5013942;28;20169;-49
2023/01/25 09:39:48;;;;;;;12.17;9.40;;;5.10;99.90;;;;;;5013983;28;20212;-52
2023/01/25 09:42:51;;;;;;;13.97;9.87;;;5.00;99.90;;;;;;5014007;28;20186;-48
2023/01/25 09:45:30;;;;;;;11.20;9.03;;;4.80;99.90;;;;;;5013800;28;20273;-52
2023/01/25 09:48:03;;;;;;;11.87;8.97;;;4.80;99.90;;;;;;5013845;28;20276;-51
2023/01/25 09:50:37;;;;;;;14.07;10.87;;;4.70;99.90;;;;;;5013679;28;20204;-49
2023/01/25 09:53:15;;;;;;;15.10;11.37;;;4.60;99.90;;;;;;5013847;28;20258;-50
2023/01/25 09:55:41;;;;;;;14.40;9.70;;;4.50;99.90;;;;;;5013779;28;20226;-49
2023/01/25 09:58:17;;;;;;;12.93;9.60;;;4.60;99.90;;;;;;5013382;28;20668;-50
2023/01/25 10:00:48;;;;;;;11.83;9.10;;;4.70;99.90;;;;;;5013621;28;20242;-50
2023/01/25 10:03:37;;;;;;;11.13;8.80;;;4.90;99.90;;;;;;5012856;28;20525;-49
2023/01/25 10:06:03;;;;;;;11.87;9.30;;;5.10;99.90;;;;;;5013606;28;20192;-50
2023/01/25 10:08:42;;;;;;;13.87;9.50;;;5.20;99.90;;;;;;5013036;28;20533;-48
2023/01/25 10:11:15;;;;;;;12.17;9.63;;;5.30;99.90;;;;;;5013653;28;20173;-52
2023/01/25 10:13:41;;;;;;;12.03;8.70;;;5.40;99.90;;;;;;5013269;28;20176;-48
2023/01/25 10:16:15;;;;;;;12.37;9.17;;;5.30;99.90;;;;;;5013331;28;20175;-49
2023/01/25 10:18:40;;;;;;;13.50;10.07;;;5.10;99.90;;;;;;5013455;28;20220;-52
2023/01/25 10:21:22;;;;;;;12.47;10.13;;;5.00;99.90;;;;;;5013398;28;20207;-47
2023/01/25 10:24:33;;;;;;;12.40;9.03;;;5.00;99.90;;;;;;5013310;28;20588;-49
2023/01/25 10:27:12;;;;;;;12.73;9.77;;;4.70;99.90;;;;;;5013267;28;20478;-46
2023/01/25 10:29:38;;;;;;;12.47;9.83;;;4.80;99.90;;;;;;5013231;28;20196;-51
2023/01/25 10:32:22;;;;;;;12.67;9.23;;;4.90;99.90;;;;;;5013149;28;20200;-49
2023/01/25 10:34:53;;;;;;;12.57;9.70;;;4.90;99.90;;;;;;5013062;28;20168;-48
2023/01/25 10:37:26;;;;;;;13.80;9.77;;;4.90;99.90;;;;;;5013143;28;20214;-49
2023/01/25 10:40:02;;;;;;;12.50;9.53;;;5.00;99.90;;;;;;5013071;28;20212;-48
2023/01/25 10:42:35;;;;;;;13.50;10.03;;;5.00;99.90;;;;;;5013050;28;20522;-50
2023/01/25 10:45:01;;;;;;;27.27;12.67;;;5.00;99.90;;;;;;5012787;28;20179;-49
2023/01/25 10:47:27;;;;;;;12.60;9.60;;;6.60;99.90;;;;;;5012831;28;20173;-52
2023/01/25 10:49:55;;;;;;;11.97;8.60;;;5.10;99.90;;;;;;5012785;28;20627;-48
2023/01/25 10:52:29;;;;;;;13.97;10.53;;;5.10;99.90;;;;;;5013005;28;20171;-51
2023/01/25 10:55:21;;;;;;;11.20;8.30;;;5.10;99.90;;;;;;5012483;28;20256;-52
2023/01/25 10:57:50;;;;;;;12.20;8.93;;;5.20;99.90;;;;;;5012845;28;20184;-49
2023/01/25 11:00:36;;;;;;;13.40;10.20;;;5.20;99.90;;;;;;5012610;28;20673;-49
2023/01/25 11:03:02;;;;;;;13.30;9.13;;;5.30;99.90;;;;;;5012752;28;20685;-49
2023/01/25 11:05:31;;;;;;;11.87;9.20;;;5.30;99.90;;;;;;5012560;28;20260;-50
2023/01/25 11:07:58;;;;;;;13.50;10.23;;;5.40;99.90;;;;;;5012686;28;20191;-49
2023/01/25 11:10:33;;;;;;;11.83;9.00;;;5.30;99.90;;;;;;5012304;28;20210;-51
2023/01/25 11:13:14;;;;;;;12.67;9.20;;;5.00;99.90;;;;;;5012207;28;20172;-49
2023/01/25 11:15:43;;;;;;;12.53;9.77;;;4.70;99.90;;;;;;5011721;28;20172;-50
2023/01/25 11:18:28;;;;;;;13.60;11.20;;;4.60;99.90;;;;;;5012239;28;20255;-48
2023/01/25 11:21:17;;;;;;;12.90;9.53;;;4.50;99.90;;;;;;5012540;28;20165;-46
2023/01/25 11:23:43;;;;;;;12.40;9.57;;;4.50;99.90;;;;;;5011997;28;20552;-49
2023/01/25 11:26:15;;;;;;;12.77;10.23;;;4.70;99.90;;;;;;5012092;28;20521;-50
2023/01/25 11:28:43;;;;;;;10.97;8.47;;;4.80;99.90;;;;;;5011597;28;20589;-50
2023/01/25 11:31:13;;;;;;;11.47;9.20;;;4.90;99.90;;;;;;5012368;28;20172;-47
2023/01/25 11:33:40;;;;;;;11.57;9.53;;;5.10;99.90;;;;;;5011368;28;20255;-48
2023/01/25 11:36:31;;;;;;;12.60;9.60;;;5.10;99.90;;;;;;5011576;28;20165;-48
2023/01/25 11:39:11;;;;;;;11.97;9.03;;;5.20;99.90;;;;;;5011969;28;20231;-47
2023/01/25 11:42:09;;;;;;;11.07;9.37;;;5.30;99.90;;;;;;5012221;28;20250;-48
2023/01/25 11:45:04;;;;;;;10.20;8.07;;;5.40;99.90;;;;;;5011745;28;20176;-47
2023/01/25 11:47:50;;;;;;;12.10;9.13;;;5.50;99.90;;;;;;5011945;28;20251;-47
2023/01/25 11:50:31;;;;;;;14.17;10.47;;;5.60;99.90;;;;;;5011814;28;20258;-47
2023/01/25 11:53:21;;;;;;;9.87;8.07;;;5.60;99.90;;;;;;5011899;28;20173;-47
2023/01/25 11:56:11;;;;;;;12.20;9.27;;;5.60;99.90;;;;;;5011666;28;20577;-49
2023/01/25 11:58:39;;;;;;;13.77;9.63;;;5.60;99.90;;;;;;5011721;28;20192;-48
2023/01/25 12:01:29;;;;;;;12.73;9.43;;;5.70;99.90;;;;;;5011776;28;20234;-48
2023/01/25 12:04:16;;;;;;;11.53;9.03;;;5.70;99.90;;;;;;5011635;28;20503;-50
2023/01/25 12:07:04;;;;;;;12.10;9.20;;;5.70;99.90;;;;;;5011302;28;20173;-47
2023/01/25 12:09:44;;;;;;;11.47;9.30;;;5.70;99.90;;;;;;5011485;28;20249;-49
2023/01/25 12:12:20;;;;;;;13.03;9.97;;;5.70;99.90;;;;;;5011606;28;20521;-51
2023/01/25 12:15:16;;;;;;;12.07;9.50;;;5.70;99.90;;;;;;5011383;28;20164;-51
2023/01/25 12:17:56;;;;;;;13.97;10.20;;;5.50;99.90;;;;;;5011447;28;20223;-47
2023/01/25 12:20:46;;;;;;;12.80;9.83;;;5.50;99.90;;;;;;5011415;28;20242;-46
2023/01/25 12:23:32;;;;;;;11.17;8.97;;;5.60;99.90;;;;;;5011594;28;20176;-48
2023/01/25 12:26:11;;;;;;;13.07;10.10;;;5.70;99.90;;;;;;5010997;28;20307;-47
2023/01/25 12:28:46;;;;;;;11.70;8.60;;;5.80;99.90;;;;;;5011064;28;20188;-50
2023/01/25 12:31:53;;;;;;;12.77;9.87;;;5.80;99.90;;;;;;5011528;28;20657;-47
2023/01/25 12:34:26;;;;;;;11.27;8.97;;;5.80;99.90;;;;;;5003100;28;20176;-48
2023/01/25 12:36:52;;;;;;;11.70;9.23;;;5.80;99.90;;;;;;5011285;28;20594;-47
2023/01/25 12:39:26;;;;;;;14.27;10.43;;;5.80;99.90;;;;;;5078803;22;20210;-49
2023/01/25 12:42:06;;;;;;;11.73;9.00;;;5.70;99.90;;;;;;4972132;28;20359;-49
2023/01/25 12:44:42;;;;;;;10.80;8.63;;;5.80;99.90;;;;;;4973668;28;20567;-48
2023/01/25 12:47:32;;;;;;;13.07;9.00;;;5.80;99.90;;;;;;4971795;28;20192;-48
2023/01/25 12:50:24;;;;;;;9.73;8.37;;;5.80;99.90;;;;;;4986617;28;20232;-49
2023/01/25 12:52:54;;;;;;;10.43;9.00;;;5.70;99.90;;;;;;4972057;28;20181;-50
2023/01/25 12:55:20;;;;;;;12.50;9.37;;;5.80;99.90;;;;;;4971906;28;20166;-49
2023/01/25 12:57:52;;;;;;;11.83;8.83;;;5.80;99.90;;;;;;4973219;28;20228;-50
2023/01/25 13:00:42;;;;;;;11.90;9.37;;;5.70;99.90;;;;;;4990996;28;20776;-49
2023/01/25 13:03:29;;;;;;;11.67;9.00;;;5.70;99.90;;;;;;4980209;28;20639;-48